createdAt,value
2023-02-06T00:00:49.280Z,7.75
2023-02-06T00:03:16.985Z,8.30
2023-02-06T00:05:43.740Z,8.93
2023-02-06T00:08:10.319Z,8.27
2023-02-06T00:10:36.922Z,8.82
2023-02-06T00:13:03.554Z,8.35
2023-02-06T00:15:30.160Z,7.95
2023-02-06T00:17:56.644Z,7.90
2023-02-06T00:20:23.138Z,7.85
2023-02-06T00:22:49.681Z,7.57
2023-02-06T00:25:16.262Z,6.95
2023-02-06T00:27:42.888Z,7.50
2023-02-06T00:30:09.775Z,7.70
2023-02-06T00:32:36.447Z,8.20
2023-02-06T00:35:03.022Z,8.07
2023-02-06T00:37:29.531Z,7.90
2023-02-06T00:39:56.044Z,7.47
2023-02-06T00:42:22.545Z,8.20
2023-02-06T00:44:49.026Z,7.90
2023-02-06T00:47:15.563Z,7.65
2023-02-06T00:49:42.044Z,7.40
2023-02-06T00:52:08.749Z,7.95
2023-02-06T00:54:35.316Z,7.28
2023-02-06T00:57:01.834Z,8.52
2023-02-06T00:59:28.378Z,6.80
2023-02-06T01:01:57.771Z,7.38
2023-02-06T01:04:24.410Z,8.20
2023-02-06T01:06:51.375Z,7.75
2023-02-06T01:09:17.929Z,6.72
2023-02-06T01:11:44.460Z,7.05
2023-02-06T01:14:10.983Z,7.88
2023-02-06T01:16:37.601Z,7.18
2023-02-06T01:19:04.131Z,7.00
2023-02-06T01:21:31.373Z,8.13
2023-02-06T01:23:58.265Z,6.68
2023-02-06T01:26:26.936Z,7.00
2023-02-06T01:28:54.222Z,7.80
2023-02-06T01:31:27.132Z,8.75
2023-02-06T01:33:55.454Z,7.60
2023-02-06T01:36:23.146Z,8.07
2023-02-06T01:38:50.748Z,6.93
2023-02-06T01:41:19.270Z,7.68
2023-02-06T01:44:06.125Z,8.60
2023-02-06T01:46:32.827Z,8.38
2023-02-06T01:49:01.151Z,7.93
2023-02-06T01:51:29.746Z,7.53
2023-02-06T01:54:02.208Z,7.47
2023-02-06T01:56:39.259Z,7.22
2023-02-06T01:59:05.854Z,7.80
2023-02-06T02:01:33.562Z,7.72
2023-02-06T02:04:08.400Z,7.45
2023-02-06T02:06:35.530Z,7.32
2023-02-06T02:09:03.912Z,6.72
2023-02-06T02:11:34.914Z,6.45
2023-02-06T02:14:03.174Z,6.60
2023-02-06T02:16:51.396Z,7.43
2023-02-06T02:19:42.806Z,6.82
2023-02-06T02:22:30.784Z,6.53
2023-02-06T02:25:36.812Z,7.15
2023-02-06T02:28:12.664Z,7.10
2023-02-06T02:31:08.616Z,6.72
2023-02-06T02:34:01.244Z,7.22
2023-02-06T02:36:49.826Z,7.45
2023-02-06T02:39:41.194Z,6.93
2023-02-06T02:42:32.393Z,2.90
2023-02-06T02:45:43.641Z,6.30
2023-02-06T02:48:21.764Z,7.40
2023-02-06T02:50:48.957Z,6.97
2023-02-06T02:53:15.790Z,7.50
2023-02-06T02:55:42.352Z,7.45
2023-02-06T02:58:18.930Z,6.63
2023-02-06T03:00:57.746Z,7.15
2023-02-06T03:03:28.774Z,7.13
2023-02-06T03:06:13.301Z,2.63
2023-02-06T03:08:58.402Z,7.22
2023-02-06T03:11:25.693Z,6.32
2023-02-06T03:14:02.601Z,6.82
2023-02-06T03:16:45.661Z,7.03
2023-02-06T03:19:18.963Z,6.65
2023-02-06T03:21:47.461Z,6.35
2023-02-06T03:24:19.495Z,6.97
2023-02-06T03:26:50.684Z,6.47
2023-02-06T03:29:18.825Z,2.53
2023-02-06T03:32:03.133Z,7.35
2023-02-06T03:34:48.913Z,7.10
2023-02-06T03:37:15.558Z,6.10
2023-02-06T03:39:42.862Z,5.90
2023-02-06T03:42:13.305Z,5.70
2023-02-06T03:44:44.662Z,5.57
2023-02-06T03:47:12.240Z,5.97
2023-02-06T03:49:41.314Z,6.57
2023-02-06T03:52:12.424Z,2.42
2023-02-06T03:54:45.080Z,6.37
2023-02-06T03:57:14.107Z,5.88
2023-02-06T03:59:40.701Z,5.75
2023-02-06T04:02:08.006Z,5.80
2023-02-06T04:04:38.112Z,6.13
2023-02-06T04:07:12.827Z,6.65
2023-02-06T04:09:39.985Z,5.60
2023-02-06T04:12:06.950Z,5.25
2023-02-06T04:14:33.699Z,6.03
2023-02-06T04:17:00.172Z,6.07
2023-02-06T04:19:26.671Z,5.63
2023-02-06T04:21:53.237Z,2.63
2023-02-06T04:24:19.847Z,5.55
2023-02-06T04:26:46.365Z,5.75
2023-02-06T04:29:12.934Z,6.28
2023-02-06T04:31:40.349Z,5.78
2023-02-06T04:34:07.035Z,5.38
2023-02-06T04:36:33.765Z,5.38
2023-02-06T04:39:00.752Z,5.90
2023-02-06T04:41:27.308Z,5.75
2023-02-06T04:43:53.868Z,5.70
2023-02-06T04:46:20.511Z,6.13
2023-02-06T04:48:47.761Z,5.88
2023-02-06T04:51:14.493Z,5.80
2023-02-06T04:53:41.013Z,2.05
2023-02-06T04:56:10.801Z,5.47
2023-02-06T04:58:38.482Z,6.30
2023-02-06T05:01:05.837Z,5.90
2023-02-06T05:03:32.635Z,2.88
2023-02-06T05:06:00.381Z,5.88
2023-02-06T05:08:27.194Z,5.78
2023-02-06T05:10:53.797Z,6.15
2023-02-06T05:13:20.470Z,6.25
2023-02-06T05:15:47.089Z,6.78
2023-02-06T05:18:15.076Z,6.10
2023-02-06T05:20:42.540Z,6.35
2023-02-06T05:23:09.555Z,6.57
2023-02-06T05:25:37.527Z,5.60
2023-02-06T05:28:06.621Z,6.40
2023-02-06T05:30:34.490Z,5.90
2023-02-06T05:33:01.161Z,6.15
2023-02-06T05:35:27.973Z,6.47
2023-02-06T05:37:54.624Z,6.55
2023-02-06T05:40:21.259Z,6.40
2023-02-06T05:42:47.810Z,6.15
2023-02-06T05:45:14.387Z,6.07
2023-02-06T05:47:41.022Z,6.25
2023-02-06T05:50:07.824Z,6.78
2023-02-06T05:52:34.317Z,6.75
2023-02-06T05:55:00.838Z,5.70
2023-02-06T05:57:27.335Z,6.43
2023-02-06T05:59:53.840Z,5.95
2023-02-06T06:02:20.608Z,6.38
2023-02-06T06:04:47.183Z,6.18
2023-02-06T06:07:13.859Z,5.88
2023-02-06T06:09:41.229Z,6.55
2023-02-06T06:12:07.799Z,6.60
2023-02-06T06:14:34.298Z,5.82
2023-02-06T06:17:01.171Z,6.38
2023-02-06T06:19:27.654Z,6.25
2023-02-06T06:21:54.641Z,6.00
2023-02-06T06:24:22.110Z,6.68
2023-02-06T06:26:48.614Z,6.45
2023-02-06T06:29:15.212Z,6.40
2023-02-06T06:31:41.773Z,6.22
2023-02-06T06:34:08.322Z,6.45
2023-02-06T06:36:34.957Z,6.43
2023-02-06T06:39:01.670Z,6.53
2023-02-06T06:41:28.214Z,6.20
2023-02-06T06:43:56.627Z,6.97
2023-02-06T06:46:23.134Z,3.33
2023-02-06T06:48:49.593Z,7.05
2023-02-06T06:51:16.324Z,7.25
2023-02-06T06:53:42.951Z,7.32
2023-02-06T06:56:13.412Z,6.72
2023-02-06T06:58:40.825Z,8.93
2023-02-06T07:01:08.490Z,8.20
2023-02-06T07:03:35.508Z,14.85
2023-02-06T07:06:02.316Z,10.07
2023-02-06T07:08:31.757Z,9.40
2023-02-06T07:10:58.607Z,8.55
2023-02-06T07:13:25.135Z,9.43
2023-02-06T07:15:51.798Z,9.55
2023-02-06T07:18:18.391Z,9.20
2023-02-06T07:20:44.910Z,3.17
2023-02-06T07:23:11.386Z,8.57
2023-02-06T07:25:38.145Z,62.70
2023-02-06T07:28:05.047Z,23.45
2023-02-06T07:30:31.584Z,14.93
2023-02-06T07:32:58.119Z,11.15
2023-02-06T07:35:24.645Z,12.15
2023-02-06T07:37:53.741Z,9.20
2023-02-06T07:40:20.357Z,10.38
2023-02-06T07:42:46.879Z,10.48
2023-02-06T07:45:21.279Z,9.85
2023-02-06T07:47:47.819Z,9.15
2023-02-06T07:50:14.307Z,8.80
2023-02-06T07:52:40.781Z,8.73
2023-02-06T07:55:07.447Z,8.82
2023-02-06T07:57:33.933Z,3.30
2023-02-06T08:00:00.486Z,9.00
2023-02-06T08:02:27.007Z,8.57
2023-02-06T08:04:53.666Z,8.82
2023-02-06T08:07:20.223Z,8.93
2023-02-06T08:09:46.820Z,9.40
2023-02-06T08:12:13.469Z,9.50
2023-02-06T08:14:40.060Z,8.75
2023-02-06T08:17:07.638Z,9.32
2023-02-06T08:19:34.220Z,8.25
2023-02-06T08:22:00.747Z,10.45
2023-02-06T08:24:27.383Z,4.03
2023-02-06T08:26:53.866Z,12.82
2023-02-06T08:29:20.689Z,13.95
2023-02-06T08:31:47.239Z,11.40
2023-02-06T08:34:15.078Z,8.68
2023-02-06T08:36:43.536Z,37.53
2023-02-06T08:39:13.361Z,9.45
2023-02-06T08:41:41.272Z,9.68
2023-02-06T08:44:14.347Z,12.25
2023-02-06T08:46:41.228Z,10.43
2023-02-06T08:49:12.318Z,9.55
2023-02-06T08:51:38.735Z,9.67
2023-02-06T08:54:08.053Z,9.85
2023-02-06T08:56:36.310Z,9.73
2023-02-06T08:59:03.413Z,10.27
2023-02-06T09:01:32.134Z,9.38
2023-02-06T09:04:02.703Z,10.07
2023-02-06T09:06:30.966Z,9.93
2023-02-06T09:08:57.798Z,8.52
2023-02-06T09:11:25.708Z,8.98
2023-02-06T09:13:58.232Z,8.52
2023-02-06T09:16:25.673Z,8.57
2023-02-06T09:18:54.176Z,9.18
2023-02-06T09:21:25.545Z,9.00
2023-02-06T09:23:55.013Z,3.42
2023-02-06T09:26:24.784Z,9.00
2023-02-06T09:28:57.086Z,9.77
2023-02-06T09:31:24.988Z,9.73
2023-02-06T09:33:51.529Z,10.07
2023-02-06T09:36:20.656Z,9.88
2023-02-06T09:38:53.487Z,9.60
2023-02-06T09:41:34.917Z,9.57
2023-02-06T09:44:06.657Z,10.45
2023-02-06T09:46:35.470Z,9.80
2023-02-06T09:49:09.113Z,10.32
2023-02-06T09:52:00.007Z,11.23
2023-02-06T09:54:50.817Z,10.05
2023-02-06T09:57:37.234Z,10.93
2023-02-06T10:00:22.562Z,10.00
2023-02-06T10:03:07.746Z,10.85
2023-02-06T10:05:46.746Z,13.98
2023-02-06T10:08:27.683Z,14.73
2023-02-06T10:10:56.388Z,17.10
2023-02-06T10:13:25.976Z,17.15
2023-02-06T10:15:57.409Z,15.88
2023-02-06T10:18:32.333Z,12.63
2023-02-06T10:21:29.515Z,10.63
2023-02-06T10:24:05.405Z,9.95
2023-02-06T10:26:37.241Z,9.40
2023-02-06T10:29:04.724Z,9.85
2023-02-06T10:31:50.526Z,9.35
2023-02-06T10:34:43.913Z,9.23
2023-02-06T10:37:17.142Z,9.23
2023-02-06T10:40:02.387Z,8.60
2023-02-06T10:42:57.305Z,8.35
2023-02-06T10:45:55.466Z,8.55
2023-02-06T10:48:31.640Z,9.05
2023-02-06T10:51:24.738Z,8.90
2023-02-06T10:53:58.580Z,9.00
2023-02-06T10:56:29.898Z,9.52
2023-02-06T10:59:33.934Z,9.90
2023-02-06T11:02:09.530Z,9.02
2023-02-06T11:04:41.328Z,9.02
2023-02-06T11:07:25.012Z,8.55
2023-02-06T11:09:53.006Z,9.02
2023-02-06T11:12:22.465Z,7.65
2023-02-06T11:14:50.486Z,7.53
2023-02-06T11:17:20.353Z,7.53
2023-02-06T11:19:49.570Z,7.35
2023-02-06T11:22:27.355Z,6.68
2023-02-06T11:24:59.801Z,6.97
2023-02-06T11:27:27.426Z,6.40
2023-02-06T11:29:54.184Z,5.95
2023-02-06T11:32:35.988Z,6.70
2023-02-06T11:35:20.889Z,5.93
2023-02-06T11:37:52.477Z,6.55
2023-02-06T11:40:18.972Z,6.40
2023-02-06T11:43:08.000Z,5.65
2023-02-06T11:45:35.142Z,5.95
2023-02-06T11:48:02.089Z,5.93
2023-02-06T11:50:28.597Z,5.35
2023-02-06T11:53:07.857Z,5.88
2023-02-06T11:55:35.945Z,5.53
2023-02-06T11:58:04.841Z,6.10
2023-02-06T12:00:32.244Z,6.03
2023-02-06T12:02:58.752Z,6.03
2023-02-06T12:05:33.177Z,6.78
2023-02-06T12:08:04.551Z,6.43
2023-02-06T12:10:35.772Z,6.47
2023-02-06T12:13:22.554Z,6.60
2023-02-06T12:15:57.606Z,6.63
2023-02-06T12:18:28.887Z,5.90
2023-02-06T12:21:03.420Z,6.13
2023-02-06T12:24:14.601Z,5.57
2023-02-06T12:26:42.406Z,5.30
2023-02-06T12:29:19.153Z,5.57
2023-02-06T12:31:57.462Z,5.00
2023-02-06T12:34:44.750Z,6.18
2023-02-06T12:37:15.553Z,6.10
2023-02-06T12:39:43.448Z,5.35
2023-02-06T12:42:43.510Z,6.10
2023-02-06T12:45:22.265Z,5.65
2023-02-06T12:48:35.675Z,5.18
2023-02-06T12:51:35.195Z,4.65
2023-02-06T12:54:17.499Z,4.85
2023-02-06T12:56:48.663Z,4.80
2023-02-06T12:59:34.541Z,5.65
2023-02-06T13:02:22.274Z,5.10
2023-02-06T13:04:49.749Z,5.80
2023-02-06T13:07:19.819Z,5.50
2023-02-06T13:09:48.684Z,5.45
2023-02-06T13:12:21.784Z,5.07
2023-02-06T13:14:51.697Z,5.30
2023-02-06T13:17:22.009Z,4.95
2023-02-06T13:19:48.480Z,5.22
2023-02-06T13:22:31.237Z,5.03
2023-02-06T13:24:58.373Z,5.82
2023-02-06T13:27:37.572Z,5.38
2023-02-06T13:30:29.899Z,5.47
2023-02-06T13:33:16.433Z,6.05
2023-02-06T13:36:09.922Z,5.82
2023-02-06T13:38:42.277Z,5.78
2023-02-06T13:41:14.899Z,5.10
2023-02-06T13:43:47.914Z,5.38
2023-02-06T13:46:24.550Z,5.20
2023-02-06T13:49:12.390Z,8.10
2023-02-06T13:51:41.839Z,5.20
2023-02-06T13:54:40.499Z,5.50
2023-02-06T13:57:20.649Z,5.65
2023-02-06T13:59:53.002Z,5.28
2023-02-06T14:02:31.154Z,5.55
2023-02-06T14:04:58.675Z,6.25
2023-02-06T14:07:27.804Z,5.10
2023-02-06T14:10:21.871Z,5.60
2023-02-06T14:12:58.771Z,5.15
2023-02-06T14:15:43.794Z,5.20
2023-02-06T14:18:35.545Z,5.07
2023-02-06T14:21:28.226Z,5.90
2023-02-06T14:24:18.836Z,5.13
2023-02-06T14:27:01.032Z,5.32
2023-02-06T14:29:30.177Z,5.75
2023-02-06T14:32:26.536Z,5.50
2023-02-06T14:35:02.098Z,5.60
2023-02-06T14:37:45.165Z,5.20
2023-02-06T14:40:26.777Z,4.88
2023-02-06T14:42:57.255Z,5.32
2023-02-06T14:45:38.494Z,4.93
2023-02-06T14:48:30.193Z,5.00
2023-02-06T14:50:57.994Z,5.25
2023-02-06T14:53:39.562Z,5.03
2023-02-06T14:56:18.710Z,5.63
2023-02-06T14:58:48.646Z,5.80
2023-02-06T15:01:18.137Z,5.55
2023-02-06T15:03:46.264Z,5.68
2023-02-06T15:06:31.401Z,5.75
2023-02-06T15:08:58.260Z,5.88
2023-02-06T15:11:32.389Z,5.95
2023-02-06T15:14:05.500Z,5.90
2023-02-06T15:16:46.141Z,5.65
2023-02-06T15:19:21.493Z,5.55
2023-02-06T15:21:49.749Z,5.45
2023-02-06T15:24:27.550Z,5.55
2023-02-06T15:27:08.380Z,5.93
2023-02-06T15:29:35.016Z,5.50
2023-02-06T15:32:08.131Z,6.00
2023-02-06T15:34:34.874Z,5.60
2023-02-06T15:37:19.574Z,5.47
2023-02-06T15:39:46.842Z,6.13
2023-02-06T15:42:13.441Z,5.38
2023-02-06T15:44:40.285Z,6.22
2023-02-06T15:47:12.866Z,5.40
2023-02-06T15:49:43.344Z,5.68
2023-02-06T15:52:12.598Z,5.20
2023-02-06T15:54:44.989Z,5.20
2023-02-06T15:57:17.252Z,5.60
2023-02-06T15:59:44.204Z,5.50
2023-02-06T16:02:39.670Z,5.18
2023-02-06T16:05:09.039Z,5.70
2023-02-06T16:07:36.500Z,5.65
2023-02-06T16:10:20.098Z,5.93
2023-02-06T16:12:46.729Z,6.10
2023-02-06T16:15:28.235Z,6.63
2023-02-06T16:17:55.020Z,7.70
2023-02-06T16:20:39.782Z,8.00
2023-02-06T16:23:30.122Z,8.18
2023-02-06T16:26:07.336Z,9.30
2023-02-06T16:28:45.451Z,9.57
2023-02-06T16:31:14.928Z,12.30
2023-02-06T16:33:44.220Z,11.95
2023-02-06T16:36:15.510Z,12.18
2023-02-06T16:38:48.275Z,9.25
2023-02-06T16:41:34.283Z,9.40
2023-02-06T16:44:02.161Z,9.68
2023-02-06T16:46:29.698Z,9.65
2023-02-06T16:48:58.124Z,9.80
2023-02-06T16:51:27.936Z,9.57
2023-02-06T16:53:54.739Z,9.93
2023-02-06T16:56:21.843Z,9.95
2023-02-06T16:58:49.083Z,9.90
2023-02-06T17:01:24.833Z,9.93
2023-02-06T17:03:52.836Z,10.25
2023-02-06T17:06:27.195Z,9.65
2023-02-06T17:09:01.905Z,9.20
2023-02-06T17:11:28.889Z,9.13
2023-02-06T17:13:55.639Z,8.82
2023-02-06T17:16:24.274Z,9.18
2023-02-06T17:18:51.257Z,9.18
2023-02-06T17:21:20.171Z,8.93
2023-02-06T17:23:47.800Z,8.93
2023-02-06T17:26:17.509Z,9.32
2023-02-06T17:28:44.983Z,8.30
2023-02-06T17:31:11.840Z,8.77
2023-02-06T17:33:38.581Z,8.38
2023-02-06T17:36:08.005Z,8.10
2023-02-06T17:38:34.523Z,8.40
2023-02-06T17:41:01.037Z,9.10
2023-02-06T17:43:29.485Z,9.65
2023-02-06T17:45:56.041Z,9.43
2023-02-06T17:48:22.555Z,8.90
2023-02-06T17:50:49.018Z,9.05
2023-02-06T17:53:15.509Z,10.30
2023-02-06T17:55:42.134Z,10.13
2023-02-06T17:58:09.643Z,11.82
2023-02-06T18:00:36.753Z,11.52
2023-02-06T18:03:05.108Z,11.60
2023-02-06T18:05:31.972Z,12.38
2023-02-06T18:07:58.534Z,11.77
2023-02-06T18:10:26.345Z,10.98
2023-02-06T18:12:52.924Z,11.02
2023-02-06T18:15:20.490Z,10.88
2023-02-06T18:17:46.973Z,11.10
2023-02-06T18:20:14.659Z,11.48
2023-02-06T18:22:41.512Z,10.43
2023-02-06T18:25:13.978Z,11.18
2023-02-06T18:27:42.748Z,12.18
2023-02-06T18:30:10.163Z,12.60
2023-02-06T18:32:38.248Z,12.70
2023-02-06T18:35:05.929Z,12.65
2023-02-06T18:37:32.560Z,13.00
2023-02-06T18:39:59.053Z,13.00
2023-02-06T18:42:44.153Z,13.48
2023-02-06T18:45:10.704Z,12.98
2023-02-06T18:47:38.968Z,13.27
2023-02-06T18:50:05.850Z,14.38
2023-02-06T18:52:32.451Z,16.65
2023-02-06T18:54:59.048Z,17.40
2023-02-06T18:57:25.554Z,18.60
2023-02-06T18:59:52.041Z,17.75
2023-02-06T19:02:18.764Z,16.45
2023-02-06T19:04:45.356Z,15.68
2023-02-06T19:07:11.932Z,14.45
2023-02-06T19:09:39.089Z,13.68
2023-02-06T19:12:05.849Z,13.93
2023-02-06T19:14:32.340Z,13.38
2023-02-06T19:16:59.058Z,13.45
2023-02-06T19:19:25.925Z,13.10
2023-02-06T19:21:52.521Z,12.95
2023-02-06T19:24:19.234Z,13.32
2023-02-06T19:26:46.157Z,12.65
2023-02-06T19:29:15.441Z,12.80
2023-02-06T19:31:42.719Z,12.27
2023-02-06T19:34:09.352Z,12.27
2023-02-06T19:36:36.220Z,11.85
2023-02-06T19:39:06.517Z,11.95
2023-02-06T19:41:33.959Z,12.35
2023-02-06T19:44:03.825Z,11.60
2023-02-06T19:46:30.377Z,11.05
2023-02-06T19:48:57.230Z,11.23
2023-02-06T19:51:27.010Z,12.10
2023-02-06T19:53:55.238Z,12.10
2023-02-06T19:56:25.222Z,12.00
2023-02-06T19:58:56.280Z,11.88
2023-02-06T20:01:23.656Z,11.30
2023-02-06T20:03:50.648Z,12.27
2023-02-06T20:06:18.488Z,13.05
2023-02-06T20:08:46.517Z,15.35
2023-02-06T20:11:19.150Z,14.55
2023-02-06T20:13:47.569Z,14.60
2023-02-06T20:16:26.948Z,13.43
2023-02-06T20:18:54.768Z,12.80
2023-02-06T20:21:34.446Z,12.60
2023-02-06T20:24:03.598Z,12.05
2023-02-06T20:26:33.755Z,12.90
2023-02-06T20:29:00.779Z,12.40
2023-02-06T20:31:28.853Z,12.32
2023-02-06T20:33:56.179Z,13.00
2023-02-06T20:36:25.303Z,13.57
2023-02-06T20:38:55.213Z,14.27
2023-02-06T20:41:23.915Z,14.48
2023-02-06T20:43:50.524Z,13.75
2023-02-06T20:46:17.475Z,13.55
2023-02-06T20:48:46.111Z,12.65
2023-02-06T20:51:13.988Z,13.45
2023-02-06T20:53:40.797Z,12.73
2023-02-06T20:56:12.593Z,13.98
2023-02-06T20:58:39.173Z,15.50
2023-02-06T21:01:17.478Z,18.10
2023-02-06T21:03:45.580Z,19.52
2023-02-06T21:06:13.010Z,18.80
2023-02-06T21:08:39.625Z,18.42
2023-02-06T21:11:06.590Z,17.50
2023-02-06T21:13:33.889Z,18.45
2023-02-06T21:16:01.061Z,17.63
2023-02-06T21:18:30.554Z,17.55
2023-02-06T21:21:06.575Z,18.10
2023-02-06T21:23:33.412Z,16.95
2023-02-06T21:26:00.195Z,18.40
2023-02-06T21:28:26.766Z,18.17
2023-02-06T21:31:00.216Z,18.58
2023-02-06T21:33:27.169Z,18.75
2023-02-06T21:35:54.233Z,19.25
2023-02-06T21:38:21.482Z,18.50
2023-02-06T21:40:49.067Z,17.45
2023-02-06T21:43:15.974Z,18.15
2023-02-06T21:45:42.781Z,18.23
2023-02-06T21:48:09.601Z,17.70
2023-02-06T21:50:40.302Z,17.15
2023-02-06T21:53:08.438Z,18.10
2023-02-06T21:55:35.292Z,17.38
2023-02-06T21:58:02.022Z,17.33
2023-02-06T22:00:28.791Z,18.92
2023-02-06T22:02:55.334Z,19.70
2023-02-06T22:05:22.049Z,21.17
2023-02-06T22:07:48.591Z,24.08
2023-02-06T22:10:15.190Z,22.33
2023-02-06T22:12:41.712Z,21.08
2023-02-06T22:15:09.064Z,20.98
2023-02-06T22:17:35.866Z,20.25
2023-02-06T22:20:02.476Z,19.13
2023-02-06T22:22:28.998Z,19.45
2023-02-06T22:24:55.528Z,8.30
2023-02-06T22:27:22.906Z,8.93
2023-02-06T22:29:49.496Z,17.42
2023-02-06T22:32:16.076Z,17.00
2023-02-06T22:34:42.562Z,17.45
2023-02-06T22:37:09.143Z,15.65
2023-02-06T22:39:35.755Z,15.00
2023-02-06T22:42:02.298Z,14.40
2023-02-06T22:44:28.869Z,14.30
2023-02-06T22:46:55.437Z,13.38
2023-02-06T22:49:24.215Z,13.48
2023-02-06T22:51:50.797Z,12.80
2023-02-06T22:54:17.397Z,12.73
2023-02-06T22:56:44.707Z,12.25
2023-02-06T22:59:20.181Z,12.98
2023-02-06T23:01:58.181Z,11.60
2023-02-06T23:04:27.397Z,13.43
2023-02-06T23:06:54.557Z,11.88
2023-02-06T23:09:26.599Z,12.27
2023-02-06T23:11:54.314Z,12.55
2023-02-06T23:14:20.828Z,12.88
2023-02-06T23:16:47.677Z,12.43
2023-02-06T23:19:15.006Z,13.13
2023-02-06T23:21:43.098Z,12.68
2023-02-06T23:24:10.466Z,12.05
2023-02-06T23:26:37.554Z,12.15
2023-02-06T23:29:06.381Z,12.20
2023-02-06T23:31:33.360Z,11.93
2023-02-06T23:34:00.000Z,11.48
2023-02-06T23:36:27.738Z,11.07
2023-02-06T23:38:54.801Z,11.93
2023-02-06T23:41:27.183Z,12.23
2023-02-06T23:44:02.099Z,11.43
2023-02-06T23:46:30.794Z,12.00
2023-02-06T23:48:57.514Z,11.70
2023-02-06T23:51:24.800Z,12.32
2023-02-06T23:53:51.681Z,11.88
2023-02-06T23:56:24.930Z,11.73
2023-02-06T23:58:52.705Z,11.18
